createdAt,value
2018-02-24T00:00:10.514Z,24.60
2018-02-24T00:02:38.067Z,22.40
2018-02-24T00:05:09.607Z,24.05
2018-02-24T00:07:37.777Z,22.92
2018-02-24T00:10:06.456Z,24.27
2018-02-24T00:12:39.076Z,22.13
2018-02-24T00:15:06.779Z,21.75
2018-02-24T00:17:34.374Z,21.25
2018-02-24T00:20:01.964Z,20.88
2018-02-24T00:22:29.514Z,22.48
2018-02-24T00:24:57.183Z,20.12
2018-02-24T00:27:24.747Z,21.75
2018-02-24T00:29:52.234Z,20.95
2018-02-24T00:32:19.786Z,22.92
2018-02-24T00:34:47.518Z,21.80
2018-02-24T00:37:15.010Z,20.90
2018-02-24T00:39:42.478Z,20.45
2018-02-24T00:42:10.033Z,20.58
2018-02-24T00:44:37.663Z,18.98
2018-02-24T00:47:05.350Z,20.23
2018-02-24T00:49:32.816Z,21.23
2018-02-24T00:52:00.261Z,20.75
2018-02-24T00:54:28.394Z,19.80
2018-02-24T00:56:55.995Z,19.90
2018-02-24T00:59:23.457Z,22.20
2018-02-24T01:01:50.944Z,21.25
2018-02-24T01:04:18.387Z,23.00
2018-02-24T01:06:45.916Z,20.45
2018-02-24T01:09:13.359Z,19.70
2018-02-24T01:11:40.815Z,19.87
2018-02-24T01:14:08.270Z,19.70
2018-02-24T01:16:35.734Z,19.85
2018-02-24T01:19:03.209Z,20.45
2018-02-24T01:21:30.659Z,20.17
2018-02-24T01:23:58.133Z,21.12
2018-02-24T01:26:25.583Z,22.60
2018-02-24T01:28:53.056Z,19.70
2018-02-24T01:31:20.542Z,20.37
2018-02-24T01:33:47.989Z,20.25
2018-02-24T01:36:15.446Z,19.50
2018-02-24T01:38:42.895Z,21.37
2018-02-24T01:41:10.348Z,19.87
2018-02-24T01:43:37.820Z,20.58
2018-02-24T01:46:05.417Z,20.52
2018-02-24T01:48:32.877Z,19.62
2018-02-24T01:51:00.366Z,20.42
2018-02-24T01:53:27.824Z,20.10
2018-02-24T01:55:55.302Z,20.62
2018-02-24T01:58:22.765Z,19.60
2018-02-24T02:00:50.214Z,17.37
2018-02-24T02:03:17.999Z,20.62
2018-02-24T02:05:45.458Z,19.80
2018-02-24T02:08:12.994Z,19.27
2018-02-24T02:10:40.483Z,20.85
2018-02-24T02:13:07.923Z,19.65
2018-02-24T02:15:35.423Z,20.55
2018-02-24T02:18:02.892Z,17.87
2018-02-24T02:20:30.334Z,20.48
2018-02-24T02:22:57.823Z,19.33
2018-02-24T02:25:25.278Z,19.33
2018-02-24T02:27:52.922Z,20.70
2018-02-24T02:30:20.380Z,18.27
2018-02-24T02:32:47.836Z,19.87
2018-02-24T02:35:15.320Z,20.17
2018-02-24T02:37:42.791Z,20.42
2018-02-24T02:40:10.250Z,20.20
2018-02-24T02:45:42.635Z,22.20
2018-02-24T02:48:10.218Z,19.37
2018-02-24T02:50:37.732Z,19.52
2018-02-24T02:53:05.272Z,20.30
2018-02-24T02:55:32.815Z,22.25
2018-02-24T02:58:00.346Z,22.15
2018-02-24T03:00:27.877Z,20.23
2018-02-24T03:02:55.378Z,19.60
2018-02-24T03:05:22.902Z,19.55
2018-02-24T03:07:50.433Z,21.02
2018-02-24T03:10:17.929Z,22.50
2018-02-24T03:12:45.450Z,22.62
2018-02-24T03:15:12.940Z,22.33
2018-02-24T03:17:40.460Z,23.02
2018-02-24T03:20:07.989Z,21.95
2018-02-24T03:22:35.506Z,22.73
2018-02-24T03:25:03.000Z,22.20
2018-02-24T03:27:30.515Z,22.02
2018-02-24T03:29:58.021Z,21.52
2018-02-24T03:32:25.536Z,23.42
2018-02-24T03:34:53.137Z,22.37
2018-02-24T03:37:20.666Z,24.20
2018-02-24T03:39:48.179Z,21.85
2018-02-24T03:42:15.723Z,22.00
2018-02-24T03:44:43.296Z,22.23
2018-02-24T03:47:10.856Z,22.15
2018-02-24T03:49:38.391Z,22.08
2018-02-24T03:52:05.892Z,22.65
2018-02-24T03:54:33.749Z,21.35
2018-02-24T03:57:01.336Z,22.60
2018-02-24T03:59:28.901Z,22.95
2018-02-24T04:01:56.405Z,23.55
2018-02-24T04:04:23.931Z,21.90
2018-02-24T04:06:51.449Z,22.75
2018-02-24T04:09:18.954Z,22.20
2018-02-24T04:11:46.474Z,24.33
2018-02-24T04:14:14.009Z,22.48
2018-02-24T04:16:41.524Z,24.48
2018-02-24T04:19:09.232Z,23.77
2018-02-24T04:21:36.760Z,23.67
2018-02-24T04:24:04.267Z,24.35
2018-02-24T04:26:31.792Z,25.20
2018-02-24T04:28:59.328Z,22.20
2018-02-24T04:31:26.841Z,25.00
2018-02-24T04:33:54.521Z,23.75
2018-02-24T04:36:22.025Z,23.83
2018-02-24T04:38:49.524Z,22.80
2018-02-24T04:41:17.058Z,23.83
2018-02-24T04:43:44.569Z,23.20
2018-02-24T04:46:12.096Z,23.48
2018-02-24T04:48:39.737Z,24.70
2018-02-24T04:51:07.307Z,22.20
2018-02-24T04:53:34.822Z,23.90
2018-02-24T04:56:02.330Z,25.00
2018-02-24T04:58:29.891Z,24.35
2018-02-24T05:00:57.512Z,27.15
2018-02-24T05:03:25.039Z,24.25
2018-02-24T05:05:52.518Z,22.17
2018-02-24T05:08:20.051Z,25.35
2018-02-24T05:10:47.610Z,24.40
2018-02-24T05:13:15.131Z,24.55
2018-02-24T05:15:42.688Z,25.33
2018-02-24T05:18:10.213Z,25.65
2018-02-24T05:20:37.740Z,23.87
2018-02-24T05:23:05.298Z,23.52
2018-02-24T05:25:32.824Z,25.17
2018-02-24T05:28:00.318Z,25.27
2018-02-24T05:30:27.842Z,23.00
2018-02-24T05:32:55.414Z,25.10
2018-02-24T05:35:22.932Z,25.12
2018-02-24T05:37:50.460Z,25.45
2018-02-24T05:40:18.066Z,23.48
2018-02-24T05:42:45.599Z,24.50
2018-02-24T05:45:13.123Z,22.67
2018-02-24T05:47:40.694Z,25.23
2018-02-24T05:50:08.219Z,24.40
2018-02-24T05:52:35.763Z,25.75
2018-02-24T05:55:03.318Z,25.10
2018-02-24T05:57:30.838Z,26.60
2018-02-24T05:59:58.368Z,25.90
2018-02-24T06:02:25.900Z,23.38
2018-02-24T06:04:53.400Z,26.87
2018-02-24T06:07:20.936Z,26.20
2018-02-24T06:09:48.452Z,26.12
2018-02-24T06:12:15.985Z,27.37
2018-02-24T06:14:43.517Z,24.42
2018-02-24T06:17:11.038Z,23.00
2018-02-24T06:19:38.546Z,25.00
2018-02-24T06:22:06.078Z,27.00
2018-02-24T06:24:33.608Z,25.42
2018-02-24T06:27:01.142Z,26.10
2018-02-24T06:29:28.669Z,24.87
2018-02-24T06:31:56.172Z,28.00
2018-02-24T06:34:23.726Z,26.77
2018-02-24T06:36:51.332Z,27.13
2018-02-24T06:39:18.904Z,27.00
2018-02-24T06:41:46.425Z,28.40
2018-02-24T06:44:13.999Z,28.50
2018-02-24T06:46:41.526Z,27.23
2018-02-24T06:49:09.145Z,27.27
2018-02-24T06:51:36.681Z,26.60
2018-02-24T06:54:04.249Z,25.37
2018-02-24T06:56:31.817Z,25.80
2018-02-24T06:58:59.316Z,25.00
2018-02-24T07:01:26.960Z,25.80
2018-02-24T07:03:54.500Z,27.70
2018-02-24T07:06:22.065Z,27.48
2018-02-24T07:08:49.634Z,25.65
2018-02-24T07:11:17.144Z,29.00
2018-02-24T07:13:44.713Z,27.30
2018-02-24T07:16:12.228Z,24.02
2018-02-24T07:18:39.782Z,26.58
2018-02-24T07:21:07.305Z,29.77
2018-02-24T07:23:34.951Z,33.67
2018-02-24T07:26:02.529Z,26.10
2018-02-24T07:28:30.041Z,27.87
2018-02-24T07:30:57.746Z,27.33
2018-02-24T07:33:25.300Z,24.87
2018-02-24T07:35:52.867Z,23.60
2018-02-24T07:38:20.430Z,25.23
2018-02-24T07:40:47.960Z,24.80
2018-02-24T07:43:15.508Z,22.85
2018-02-24T07:45:43.068Z,24.98
2018-02-24T07:48:10.673Z,25.80
2018-02-24T07:50:38.213Z,23.08
2018-02-24T07:53:05.738Z,23.83
2018-02-24T07:55:33.513Z,23.15
2018-02-24T07:58:01.025Z,24.95
2018-02-24T08:00:28.535Z,23.52
2018-02-24T08:02:56.106Z,24.35
2018-02-24T08:20:00.842Z,24.42
2018-02-24T08:22:28.401Z,24.85
2018-02-24T08:24:56.059Z,23.23
2018-02-24T08:27:23.594Z,23.23
2018-02-24T08:29:51.127Z,23.87
2018-02-24T08:32:18.640Z,21.85
2018-02-24T08:34:46.315Z,21.62
2018-02-24T08:37:13.919Z,22.50
2018-02-24T08:39:43.582Z,20.42
2018-02-24T08:42:11.126Z,22.08
2018-02-24T08:44:38.836Z,23.40
2018-02-24T08:47:06.389Z,21.33
2018-02-24T08:49:33.922Z,23.42
2018-02-24T08:52:01.442Z,21.15
2018-02-24T08:54:29.022Z,20.52
2018-02-24T08:56:56.886Z,20.50
2018-02-24T08:59:24.446Z,20.08
2018-02-24T09:01:51.957Z,20.85
2018-02-24T09:04:19.551Z,18.92
2018-02-24T09:06:47.131Z,19.77
2018-02-24T09:09:14.702Z,20.17
2018-02-24T09:11:42.221Z,20.33
2018-02-24T09:14:09.846Z,22.08
2018-02-24T09:16:37.406Z,21.70
2018-02-24T09:19:16.486Z,19.80
2018-02-24T09:21:44.089Z,19.08
2018-02-24T09:24:11.589Z,18.08
2018-02-24T09:26:39.083Z,17.85
2018-02-24T09:29:06.634Z,17.30
2018-02-24T09:31:34.152Z,17.75
2018-02-24T09:34:01.785Z,18.00
2018-02-24T09:36:29.306Z,19.40
2018-02-24T09:38:56.842Z,18.10
2018-02-24T09:41:24.332Z,16.27
2018-02-24T09:43:51.904Z,17.62
2018-02-24T09:46:19.579Z,15.52
2018-02-24T09:48:47.192Z,15.75
2018-02-24T09:51:14.748Z,18.40
2018-02-24T09:53:42.351Z,19.92
2018-02-24T09:56:09.936Z,16.52
2018-02-24T09:58:37.540Z,16.35
2018-02-24T10:01:07.329Z,15.95
2018-02-24T10:03:35.047Z,15.20
2018-02-24T10:06:02.577Z,15.43
2018-02-24T10:08:30.179Z,15.45
2018-02-24T10:10:57.673Z,15.52
2018-02-24T10:13:25.178Z,15.43
2018-02-24T10:15:52.711Z,14.50
2018-02-24T10:18:21.679Z,14.80
2018-02-24T10:20:49.291Z,14.10
2018-02-24T10:23:16.852Z,14.87
2018-02-24T10:25:44.521Z,14.20
2018-02-24T10:28:12.048Z,15.30
2018-02-24T10:30:39.685Z,13.85
2018-02-24T10:33:07.208Z,14.65
2018-02-24T10:35:34.723Z,13.38
2018-02-24T10:38:02.234Z,13.88
2018-02-24T10:40:29.876Z,15.98
2018-02-24T10:42:57.439Z,14.90
2018-02-24T10:45:24.967Z,13.80
2018-02-24T10:47:52.473Z,13.05
2018-02-24T10:50:19.962Z,13.62
2018-02-24T10:52:47.472Z,13.57
2018-02-24T10:55:14.972Z,12.52
2018-02-24T10:57:42.485Z,11.75
2018-02-24T11:00:10.124Z,13.15
2018-02-24T11:02:37.672Z,13.50
2018-02-24T11:05:05.199Z,12.90
2018-02-24T11:07:32.797Z,13.40
2018-02-24T11:10:00.631Z,13.18
2018-02-24T11:12:28.160Z,14.27
2018-02-24T11:14:55.663Z,13.62
2018-02-24T11:17:23.162Z,14.57
2018-02-24T11:19:50.852Z,14.68
2018-02-24T11:22:18.617Z,12.95
2018-02-24T11:24:46.134Z,15.07
2018-02-24T11:27:13.666Z,13.05
2018-02-24T11:29:41.221Z,15.18
2018-02-24T11:32:08.729Z,14.70
2018-02-24T11:34:36.314Z,13.13
2018-02-24T11:37:03.952Z,13.20
2018-02-24T11:39:37.026Z,13.43
2018-02-24T11:42:04.537Z,13.57
2018-02-24T11:44:32.056Z,13.05
2018-02-24T11:46:59.611Z,11.82
2018-02-24T11:49:27.114Z,12.40
2018-02-24T11:51:54.636Z,11.65
2018-02-24T11:54:22.184Z,12.77
2018-02-24T11:56:49.796Z,12.52
2018-02-24T11:59:17.369Z,12.23
2018-02-24T12:01:44.868Z,13.00
2018-02-24T12:04:12.391Z,11.65
2018-02-24T12:06:39.871Z,12.10
2018-02-24T12:09:07.409Z,12.70
2018-02-24T12:11:34.958Z,12.55
2018-02-24T12:14:02.482Z,11.43
2018-02-24T12:16:29.992Z,11.45
2018-02-24T12:18:57.531Z,13.40
2018-02-24T12:21:25.049Z,12.23
2018-02-24T12:26:45.712Z,11.85
2018-02-24T12:34:59.165Z,15.93
2018-02-24T12:37:26.658Z,13.73
2018-02-24T12:39:54.186Z,13.03
2018-02-24T12:42:21.691Z,12.20
2018-02-24T12:44:49.178Z,12.97
2018-02-24T12:47:16.745Z,11.53
2018-02-24T12:49:44.306Z,12.60
2018-02-24T12:52:11.825Z,13.60
2018-02-24T12:54:39.340Z,11.90
2018-02-24T12:57:07.863Z,12.20
2018-02-24T12:59:35.356Z,12.83
2018-02-24T13:02:02.869Z,10.40
2018-02-24T13:04:31.406Z,12.80
2018-02-24T13:06:58.982Z,11.40
2018-02-24T13:09:26.490Z,12.20
2018-02-24T13:11:53.986Z,12.67
2018-02-24T13:14:21.502Z,11.47
2018-02-24T13:16:48.996Z,11.17
2018-02-24T13:19:16.644Z,11.80
2018-02-24T13:22:05.376Z,11.40
2018-02-24T13:24:43.077Z,11.70
2018-02-24T13:27:17.010Z,10.00
2018-02-24T13:29:48.932Z,11.10
2018-02-24T13:32:22.159Z,11.20
2018-02-24T13:34:55.162Z,10.07
2018-02-24T13:37:23.198Z,9.83
2018-02-24T13:40:04.151Z,10.63
2018-02-24T13:42:32.274Z,9.80
2018-02-24T13:45:01.087Z,10.97
2018-02-24T13:47:32.386Z,10.13
2018-02-24T13:50:00.188Z,9.47
2018-02-24T13:55:05.080Z,9.83
2018-02-24T13:57:46.591Z,9.97
2018-02-24T14:00:17.371Z,10.53
2018-02-24T14:02:45.199Z,10.70
2018-02-24T14:05:13.816Z,11.07
2018-02-24T14:07:43.866Z,10.20
2018-02-24T14:10:14.549Z,11.07
2018-02-24T14:12:42.524Z,10.60
2018-02-24T14:15:37.665Z,11.13
2018-02-24T14:18:08.389Z,10.63
2018-02-24T14:20:36.130Z,10.83
2018-02-24T14:23:03.949Z,11.60
2018-02-24T14:25:31.665Z,10.53
2018-02-24T14:28:09.066Z,11.87
2018-02-24T14:30:36.774Z,13.63
2018-02-24T14:33:04.300Z,16.20
2018-02-24T14:35:31.881Z,13.53
2018-02-24T14:37:59.394Z,14.87
2018-02-24T14:40:27.108Z,14.97
2018-02-24T14:42:54.610Z,13.87
2018-02-24T14:45:22.186Z,13.97
2018-02-24T14:47:49.705Z,12.60
2018-02-24T14:50:17.226Z,14.30
2018-02-24T14:52:44.727Z,13.30
2018-02-24T14:55:12.251Z,14.40
2018-02-24T14:57:39.774Z,13.53
2018-02-24T15:00:07.346Z,13.17
2018-02-24T15:02:34.845Z,14.80
2018-02-24T15:05:02.381Z,14.27
2018-02-24T15:07:30.019Z,13.60
2018-02-24T15:09:57.513Z,13.17
2018-02-24T15:12:25.009Z,10.97
2018-02-24T15:14:52.514Z,12.50
2018-02-24T15:17:20.046Z,12.43
2018-02-24T15:19:47.564Z,11.87
2018-02-24T15:22:15.089Z,12.40
2018-02-24T15:24:42.617Z,11.20
2018-02-24T15:27:10.161Z,12.60
2018-02-24T15:29:38.895Z,10.97
2018-02-24T15:32:06.641Z,10.47
2018-02-24T15:34:34.288Z,10.83
2018-02-24T15:37:01.790Z,11.90
2018-02-24T15:39:29.301Z,11.20
2018-02-24T15:41:56.788Z,11.00
2018-02-24T15:44:24.308Z,12.00
2018-02-24T15:46:51.992Z,11.73
2018-02-24T15:49:19.563Z,10.20
2018-02-24T15:51:49.061Z,10.67
2018-02-24T15:57:04.234Z,10.27
2018-02-24T15:59:32.428Z,8.90
2018-02-24T16:02:00.099Z,9.00
2018-02-24T16:04:27.783Z,10.73
2018-02-24T16:06:55.308Z,11.57
2018-02-24T16:09:22.940Z,10.40
2018-02-24T16:11:50.630Z,8.75
2018-02-24T16:14:18.203Z,9.80
2018-02-24T16:16:46.094Z,10.85
2018-02-24T16:19:16.574Z,10.27
2018-02-24T16:21:44.197Z,11.00
2018-02-24T16:24:13.412Z,9.77
2018-02-24T16:26:41.259Z,9.55
2018-02-24T16:29:08.744Z,10.00
2018-02-24T16:31:36.240Z,10.15
2018-02-24T16:34:04.799Z,9.05
2018-02-24T16:36:32.739Z,10.23
2018-02-24T16:39:00.999Z,10.02
2018-02-24T16:41:28.489Z,9.45
2018-02-24T16:43:55.999Z,9.65
2018-02-24T16:46:24.802Z,8.68
2018-02-24T16:48:52.464Z,7.82
2018-02-24T16:51:20.054Z,7.55
2018-02-24T16:53:47.617Z,9.50
2018-02-24T16:56:15.181Z,9.15
2018-02-24T16:58:42.760Z,24.70
2018-02-24T17:01:11.129Z,9.63
2018-02-24T17:03:40.340Z,16.48
2018-02-24T17:06:08.210Z,8.65
2018-02-24T17:08:41.370Z,7.25
2018-02-24T17:11:23.946Z,7.55
2018-02-24T17:13:58.063Z,7.10
2018-02-24T17:19:25.983Z,8.63
2018-02-24T17:21:56.511Z,8.25
2018-02-24T17:24:55.495Z,6.95
2018-02-24T17:27:26.397Z,7.87
2018-02-24T17:30:05.481Z,7.03
2018-02-24T17:32:48.994Z,7.60
2018-02-24T17:35:27.461Z,6.95
2018-02-24T17:38:05.257Z,31.67
2018-02-24T17:40:54.772Z,8.15
2018-02-24T17:43:50.050Z,10.70
2018-02-24T17:46:23.421Z,6.75
2018-02-24T17:54:46.941Z,6.32
2018-02-24T17:57:19.981Z,6.25
2018-02-24T17:59:51.949Z,7.50
2018-02-24T18:11:38.971Z,9.48
2018-02-24T18:17:11.663Z,8.18
2018-02-24T18:19:54.929Z,8.57
2018-02-24T18:22:23.672Z,7.43
2018-02-24T18:25:10.540Z,7.32
2018-02-24T18:30:32.581Z,7.28
2018-02-24T18:33:01.713Z,5.95
2018-02-24T18:35:29.641Z,7.30
2018-02-24T18:37:57.655Z,7.60
2018-02-24T18:40:25.358Z,7.80
2018-02-24T18:42:54.208Z,8.10
2018-02-24T18:45:24.787Z,10.75
2018-02-24T18:47:59.727Z,11.43
2018-02-24T18:50:32.464Z,10.57
2018-02-24T18:53:01.431Z,9.93
2018-02-24T18:55:29.541Z,8.32
2018-02-24T18:57:57.350Z,9.85
2018-02-24T19:00:25.579Z,9.20
2018-02-24T19:02:59.846Z,10.25
2018-02-24T19:05:27.381Z,9.60
2018-02-24T19:07:54.913Z,9.75
2018-02-24T19:10:22.523Z,10.88
2018-02-24T19:12:50.117Z,8.85
2018-02-24T19:15:17.724Z,11.90
2018-02-24T19:17:45.277Z,10.85
2018-02-24T19:20:12.788Z,8.88
2018-02-24T19:22:40.320Z,9.52
2018-02-24T19:25:07.962Z,8.50
2018-02-24T19:27:35.493Z,12.40
2018-02-24T19:30:03.040Z,16.50
2018-02-24T19:32:54.331Z,8.95
2018-02-24T19:35:23.272Z,8.75
2018-02-24T19:37:50.806Z,7.78
2018-02-24T19:40:18.410Z,7.22
2018-02-24T19:42:45.995Z,7.28
2018-02-24T19:45:14.003Z,7.65
2018-02-24T19:47:44.906Z,8.20
2018-02-24T19:50:15.070Z,7.68
2018-02-24T19:52:45.656Z,7.37
2018-02-24T19:55:13.479Z,6.85
2018-02-24T19:57:41.990Z,6.15
2018-02-24T20:00:09.917Z,6.25
2018-02-24T20:02:37.770Z,7.53
2018-02-24T20:05:10.728Z,7.37
2018-02-24T20:07:40.075Z,7.72
2018-02-24T20:10:07.662Z,8.55
2018-02-24T20:12:35.371Z,6.80
2018-02-24T20:15:06.021Z,6.95
2018-02-24T20:17:33.932Z,8.32
2018-02-24T20:20:01.461Z,6.65
2018-02-24T20:22:28.970Z,6.15
2018-02-24T20:24:56.471Z,5.82
2018-02-24T20:27:24.025Z,6.95
2018-02-24T20:29:51.597Z,6.85
2018-02-24T20:32:19.222Z,8.48
2018-02-24T20:34:46.918Z,6.80
2018-02-24T20:37:14.430Z,7.30
2018-02-24T20:39:41.966Z,8.18
2018-02-24T20:42:09.515Z,6.15
2018-02-24T20:44:37.041Z,8.00
2018-02-24T20:47:04.554Z,7.82
2018-02-24T20:49:32.998Z,7.87
2018-02-24T20:52:00.546Z,6.18
2018-02-24T20:54:29.038Z,6.00
2018-02-24T20:56:56.550Z,7.47
2018-02-24T20:59:24.057Z,6.87
2018-02-24T21:01:51.564Z,6.43
2018-02-24T21:04:19.086Z,6.45
2018-02-24T21:06:46.629Z,6.65
2018-02-24T21:09:14.375Z,6.50
2018-02-24T21:11:41.876Z,5.62
2018-02-24T21:14:09.559Z,6.20
2018-02-24T21:16:37.159Z,5.75
2018-02-24T21:19:04.663Z,6.68
2018-02-24T21:21:32.217Z,6.50
2018-02-24T21:23:59.764Z,8.07
2018-02-24T21:26:27.360Z,8.05
2018-02-24T21:28:54.866Z,7.53
2018-02-24T21:31:22.397Z,9.35
2018-02-24T21:33:50.010Z,9.55
2018-02-24T21:36:17.516Z,7.87
2018-02-24T21:38:45.712Z,7.60
2018-02-24T21:41:13.347Z,7.05
2018-02-24T21:43:40.942Z,6.55
2018-02-24T21:46:08.479Z,7.53
2018-02-24T21:48:36.069Z,6.50
2018-02-24T21:51:03.624Z,5.68
2018-02-24T21:53:31.254Z,24.45
2018-02-24T21:55:59.851Z,8.73
2018-02-24T21:58:27.510Z,6.30
2018-02-24T22:00:55.012Z,6.20
2018-02-24T22:03:22.800Z,6.07
2018-02-24T22:05:50.706Z,7.32
2018-02-24T22:08:18.269Z,6.72
2018-02-24T22:10:45.766Z,6.22
2018-02-24T22:13:13.348Z,6.32
2018-02-24T22:15:40.944Z,5.05
2018-02-24T22:18:08.680Z,6.10
2018-02-24T22:20:36.400Z,7.70
2018-02-24T22:23:03.929Z,5.40
2018-02-24T22:25:32.421Z,5.72
2018-02-24T22:28:00.081Z,6.35
2018-02-24T22:30:27.687Z,6.30
2018-02-24T22:32:55.209Z,5.55
2018-02-24T22:35:22.731Z,5.03
2018-02-24T22:37:50.414Z,5.93
2018-02-24T22:40:17.961Z,6.70
2018-02-24T22:42:45.661Z,5.28
2018-02-24T22:45:13.255Z,46.25
2018-02-24T22:47:46.243Z,6.97
2018-02-24T22:50:13.786Z,6.43
2018-02-24T22:52:42.205Z,5.75
2018-02-24T22:55:12.529Z,6.47
2018-02-24T22:57:40.820Z,6.22
2018-02-24T23:00:12.217Z,5.60
2018-02-24T23:03:02.320Z,5.90
2018-02-24T23:05:29.900Z,5.50
2018-02-24T23:07:57.559Z,5.30
2018-02-24T23:10:25.210Z,6.53
2018-02-24T23:12:53.810Z,6.97
2018-02-24T23:15:21.637Z,5.30
2018-02-24T23:17:49.319Z,6.03
2018-02-24T23:20:16.926Z,6.35
2018-02-24T23:22:44.761Z,5.35
2018-02-24T23:25:13.105Z,6.60
2018-02-24T23:27:43.385Z,5.97
2018-02-24T23:30:10.983Z,5.20
2018-02-24T23:32:38.558Z,5.43
2018-02-24T23:35:06.424Z,5.40
2018-02-24T23:37:34.326Z,5.03
2018-02-24T23:40:02.567Z,5.90
2018-02-24T23:42:31.331Z,6.93
2018-02-24T23:44:59.914Z,5.07
2018-02-24T23:47:27.616Z,9.85
2018-02-24T23:49:55.495Z,8.00
2018-02-24T23:52:23.066Z,6.65
2018-02-24T23:54:50.615Z,6.90
2018-02-24T23:57:18.117Z,5.65
2018-02-24T23:59:45.818Z,5.93
